JOPM7: Shoal Creek, Joplin, MO

Data processed at Sun Jul 15 2018 23:36


All information presented herein is the property of the government of the United States of America and may be revised or deleted at any time without prior notice.
Dissemination of this information without the expressed written consent of the Public Affairs Office, Tulsa District U.S. Army Corps of Engineers is strictly prohibited.
These data are gathered electronically and, as presented, have not undergone any form of quality control. These data are not guaranteed to be valid or correct.
Go to home page.
Go to station list.

Downstream station:


Previous Day
Next Day
Current Day
    
SHEF ID:       JOPM7     Shoal Creek above Joplin, MO
STATION TYPE:  

               PRECIP PRECIP(A)     STAGE  RIV-FLOW   VOLTAGE
                   in        in        ft       cfs      volt
              Ccp-Rev   Ccp-Rev   Ccp-Rev   Ccp-Rev   Ccp-Rev
(US/Central)
07/15 00:00      0.00      ----      1.67       103     13.03
07/15 01:00      0.00      ----      1.67       103     13.02
07/15 02:00      0.06      ----      1.68       105     13.00
07/15 03:00      0.00      ----      1.70       110     12.97
07/15 04:00      0.00      ----      1.69       108     12.94
07/15 05:00      0.03      ----      1.70       110     12.93
07/15 06:00      0.00      ----      1.45        54     12.93
07/15 07:00      0.00      ----      1.72       115     12.95
07/15 08:00      0.00      ----      1.47        58     13.04
07/15 09:00      0.00      ----      1.75       123     13.25
07/15 10:00      0.00      ----      1.76       126     13.52
07/15 11:00      0.00      ----      1.77       129     13.63
07/15 12:00      0.00      ----      1.77       129     13.71
07/15 13:00      0.00      ----      1.78       131     13.78
07/15 14:00      0.00      ----      1.80       137     13.93
07/15 15:00      0.00      ----      1.84       148     14.19
07/15 16:00      0.00      ----      1.83       145     14.30
07/15 17:00      0.00      ----      1.90       165     14.01
07/15 18:00      0.00      ----      1.91       168     13.65
07/15 19:00      0.00      ----      1.89       162     13.28
07/15 20:00      0.00      ----      1.86       154     13.11
07/15 21:00      0.00      ----      1.86       154     13.09
07/15 22:00      0.00      ----      1.48        60     13.09
07/15 23:00      ----      ----      ----      ----      ----